Time;durP1;ratioP1;P1;durP2;ratioP2;P2;SDS_P1;SDS_P2;PMS_P1;PMS_P2;Temp;Humidity;BMP_temperature;BMP_pressure;BME280_temperature;BME280_humidity;BME280_pressure;Samples;Min_cycle;Max_cycle;Signal;HPM_P1;HPM_P2
2024/03/22 00:02:01;;;;;;;6.00;3.00;;;;;;;4.71;63.42;99220.20;105500;1257;72649;-27
2024/03/22 00:04:28;;;;;;;7.30;4.10;;;;;;;4.35;64.42;99219.73;105313;1254;61305;-27
2024/03/22 00:06:55;;;;;;;11.50;4.10;;;;;;;4.02;63.96;99219.21;105668;1259;61371;-27
2024/03/22 00:09:22;;;;;;;8.50;3.40;;;;;;;3.63;64.56;99220.15;105748;1252;74502;-27
2024/03/22 00:11:49;;;;;;;8.30;3.90;;;;;;;3.39;65.52;99218.41;105649;1254;74861;-27
2024/03/22 00:14:16;;;;;;;6.40;3.90;;;;;;;3.13;66.23;99211.56;105612;1253;73755;-27
2024/03/22 00:16:43;;;;;;;4.20;3.30;;;;;;;3.58;66.35;99211.27;105579;1253;61366;-27
2024/03/22 00:19:11;;;;;;;7.40;4.50;;;;;;;4.32;65.00;99212.66;105511;1256;61215;-27
2024/03/22 00:21:38;;;;;;;7.00;5.00;;;;;;;4.51;64.51;99209.45;105455;1253;74584;-27
2024/03/22 00:24:05;;;;;;;8.90;5.80;;;;;;;4.38;64.41;99207.37;105684;1257;74421;-28
2024/03/22 00:26:33;;;;;;;12.30;6.10;;;;;;;4.15;64.91;99205.34;105545;1254;72648;-27
2024/03/22 00:28:59;;;;;;;11.20;5.50;;;;;;;3.90;64.88;99200.61;105529;1253;61350;-27
2024/03/22 00:31:26;;;;;;;12.80;5.00;;;;;;;3.66;65.14;99198.55;105549;1258;61233;-27
2024/03/22 00:33:54;;;;;;;5.90;3.60;;;;;;;3.45;65.41;99200.09;105540;1253;74629;-27
2024/03/22 00:36:20;;;;;;;3.70;2.90;;;;;;;3.20;66.54;99197.20;105559;1257;74188;-27
2024/03/22 00:38:47;;;;;;;8.90;5.70;;;;;;;3.60;66.42;99201.76;105712;1254;72408;-27
2024/03/22 00:41:14;;;;;;;12.00;6.90;;;;;;;4.28;63.86;99199.13;105506;1253;61269;-27
2024/03/22 00:43:41;;;;;;;11.80;6.90;;;;;;;4.34;62.08;99199.36;105530;1253;61250;-28
2024/03/22 00:46:08;;;;;;;14.50;8.10;;;;;;;4.08;61.76;99200.89;105492;1253;74512;-28
2024/03/22 00:48:36;;;;;;;17.00;9.40;;;;;;;3.68;62.60;99200.31;105521;1256;74132;-27
2024/03/22 00:51:03;;;;;;;16.60;7.40;;;;;;;3.34;62.79;99195.83;105502;1253;73169;-28
2024/03/22 00:53:30;;;;;;;8.70;5.20;;;;;;;2.92;63.60;99189.10;105537;1252;61430;-27
2024/03/22 00:55:59;;;;;;;10.90;5.50;;;;;;;2.68;64.34;99187.44;105727;1256;61248;-28
2024/03/22 00:58:27;;;;;;;11.00;4.90;;;;;;;2.44;65.19;99185.80;105716;1253;75162;-27
2024/03/22 01:00:54;;;;;;;7.20;4.20;;;;;;;2.14;66.07;99190.20;105548;1260;74378;-27
2024/03/22 01:03:22;;;;;;;9.50;5.30;;;;;;;2.53;66.74;99186.06;105510;1252;71605;-27
2024/03/22 01:05:49;;;;;;;13.50;6.70;;;;;;;3.39;64.99;99189.23;105466;1253;61350;-27
2024/03/22 01:08:16;;;;;;;10.10;6.00;;;;;;;3.60;63.76;99183.53;105471;1254;61212;-27
2024/03/22 01:10:43;;;;;;;10.40;6.90;;;;;;;3.47;63.93;99185.02;105527;1253;74571;-27
2024/03/22 01:13:10;;;;;;;10.10;6.20;;;;;;;3.20;63.54;99184.30;105484;1254;73329;-27
2024/03/22 01:15:36;;;;;;;11.50;5.90;;;;;;;2.87;63.53;99182.60;105579;1253;72630;-27
2024/03/22 01:18:04;;;;;;;7.80;4.30;;;;;;;2.61;63.92;99183.14;105533;1253;61363;-27
2024/03/22 01:20:31;;;;;;;7.70;4.20;;;;;;;2.39;64.83;99186.55;105337;1258;61314;-27
2024/03/22 01:22:59;;;;;;;6.80;3.20;;;;;;;2.20;65.46;99186.72;105708;1253;74531;-27
2024/03/22 01:25:28;;;;;;;5.80;3.30;;;;;;;1.94;67.08;99185.98;105567;1260;74147;-28
2024/03/22 01:27:55;;;;;;;7.90;4.70;;;;;;;2.29;67.87;99183.73;105282;1258;72456;-28
2024/03/22 01:30:22;;;;;;;6.00;4.40;;;;;;;3.04;66.58;99181.48;105362;1255;61329;-28
2024/03/22 01:32:50;;;;;;;4.70;3.60;;;;;;;3.27;65.78;99176.24;105313;1260;61344;-26
2024/03/22 01:35:17;;;;;;;5.00;4.10;;;;;;;3.19;65.66;99172.02;105691;1257;74468;-26
2024/03/22 01:37:44;;;;;;;6.20;4.30;;;;;;;3.00;65.48;99172.06;105603;1257;73324;-26
2024/03/22 01:40:13;;;;;;;7.50;4.60;;;;;;;2.68;65.26;99167.90;105646;1253;72644;-26
2024/03/22 01:42:41;;;;;;;8.50;4.30;;;;;;;2.41;66.01;99167.60;105531;1253;61510;-26
2024/03/22 01:45:08;;;;;;;6.40;4.40;;;;;;;2.24;66.73;99162.03;105835;1253;61211;-26
2024/03/22 01:47:35;;;;;;;6.90;3.90;;;;;;;2.10;66.76;99164.87;105688;1253;74357;-27
2024/03/22 01:50:02;;;;;;;9.30;4.90;;;;;;;1.89;67.23;99160.67;105393;1258;74466;-28
2024/03/22 01:52:29;;;;;;;8.80;5.60;;;;;;;2.35;67.78;99160.52;105510;1253;72704;-28
2024/03/22 01:54:56;;;;;;;4.90;3.10;;;;;;;3.19;66.27;99156.06;105418;1253;61539;-26
2024/03/22 01:57:23;;;;;;;5.00;2.90;;;;;;;3.37;64.49;99150.86;105389;1258;61275;-26
2024/03/22 01:59:50;;;;;;;5.50;3.70;;;;;;;3.10;64.08;99149.96;105546;1253;73520;-26
2024/03/22 02:02:17;;;;;;;5.30;4.10;;;;;;;2.66;63.94;99144.17;105756;1257;74433;-26
2024/03/22 02:04:44;;;;;;;6.10;4.40;;;;;;;2.20;64.46;99142.52;105788;1253;72453;-26
2024/03/22 02:07:11;;;;;;;6.60;4.10;;;;;;;1.84;65.45;99144.98;105516;1253;61314;-25
2024/03/22 02:09:37;;;;;;;8.30;5.00;;;;;;;1.54;66.41;99146.06;105469;1252;61720;-27
2024/03/22 02:12:05;;;;;;;9.20;5.20;;;;;;;1.21;67.61;99142.13;105524;1253;74574;-28
2024/03/22 02:14:32;;;;;;;8.10;4.40;;;;;;;1.32;68.71;99139.80;105167;1253;74179;-28
2024/03/22 02:16:59;;;;;;;10.90;6.50;;;;;;;2.22;67.15;99135.89;105445;1254;73504;-28
2024/03/22 02:19:25;;;;;;;12.60;7.30;;;;;;;2.64;65.99;99140.70;105513;1253;61269;-28
2024/03/22 02:21:52;;;;;;;13.40;8.30;;;;;;;2.60;65.47;99138.46;105508;1256;61612;-27
2024/03/22 02:24:19;;;;;;;13.50;8.30;;;;;;;2.40;65.37;99141.25;105501;1253;73621;-28
2024/03/22 02:26:46;;;;;;;11.90;6.90;;;;;;;2.18;65.35;99140.39;105531;1252;74923;-26
2024/03/22 02:29:13;;;;;;;10.10;4.30;;;;;;;1.95;65.72;99141.55;105499;1253;72474;-25
2024/03/22 02:31:40;;;;;;;8.50;4.80;;;;;;;1.72;65.91;99144.44;105508;1253;61350;-27
2024/03/22 02:34:07;;;;;;;7.50;4.20;;;;;;;1.48;66.21;99143.06;105572;1257;61215;-28
2024/03/22 02:36:34;;;;;;;10.50;5.10;;;;;;;1.22;67.03;99140.55;105215;1253;74723;-27
2024/03/22 02:39:01;;;;;;;11.10;5.70;;;;;;;1.60;67.67;99139.48;105522;1257;74063;-28
2024/03/22 02:41:28;;;;;;;12.10;7.40;;;;;;;2.52;65.68;99137.79;105672;1257;72630;-28
2024/03/22 02:43:55;;;;;;;19.40;8.30;;;;;;;2.81;64.37;99139.86;105579;1254;61273;-28
2024/03/22 02:46:21;;;;;;;12.60;7.60;;;;;;;2.67;63.47;99140.53;105503;1253;61297;-26
2024/03/22 02:48:48;;;;;;;13.20;8.10;;;;;;;2.36;63.62;99145.75;105637;1252;74607;-27
2024/03/22 02:51:15;;;;;;;11.20;6.40;;;;;;;2.06;64.65;99141.23;105769;1257;74027;-28
2024/03/22 02:54:36;;;;;;;12.60;6.40;;;;;;;1.49;66.39;99141.66;102681;1292;601129;-27
2024/03/22 02:57:04;;;;;;;10.70;5.60;;;;;;;1.56;66.13;99145.80;104811;1267;61121;-27
2024/03/22 03:07:11;;;;;;;13.90;8.40;;;;;;;2.67;65.02;99140.86;102690;1292;598960;-25
2024/03/22 03:09:38;;;;;;;13.20;6.20;;;;;;;2.96;63.51;99145.17;104802;1266;61165;-27
2024/03/22 03:12:07;;;;;;;11.70;7.10;;;;;;;2.77;63.04;99140.76;104735;1273;61181;-28
2024/03/22 03:22:16;;;;;;;9.50;5.20;;;;;;;1.65;64.49;99140.96;102669;1292;600298;-27
2024/03/22 03:24:44;;;;;;;11.50;5.10;;;;;;;1.37;65.32;99140.45;104819;1266;61122;-27
2024/03/22 03:27:12;;;;;;;6.80;4.10;;;;;;;1.18;65.58;99136.80;104877;1267;61063;-28
2024/03/22 03:29:39;;;;;;;7.40;4.60;;;;;;;0.98;65.96;99139.46;104833;1270;72962;-27
2024/03/22 03:32:07;;;;;;;10.10;4.10;;;;;;;0.76;66.91;99135.55;104775;1271;74358;-27
2024/03/22 03:34:35;;;;;;;8.30;3.80;;;;;;;1.23;67.02;99137.59;104837;1273;71482;-28
2024/03/22 03:37:03;;;;;;;7.80;5.10;;;;;;;2.12;65.23;99135.86;104494;1267;489621;-28
2024/03/22 03:39:30;;;;;;;9.90;5.90;;;;;;;2.31;63.71;99133.77;105589;1257;61084;-28
2024/03/22 03:41:58;;;;;;;8.50;5.00;;;;;;;2.15;63.58;99135.05;105511;1258;73082;-28
2024/03/22 03:44:26;;;;;;;10.10;6.20;;;;;;;1.87;64.15;99139.17;105494;1258;74311;-27
2024/03/22 03:46:54;;;;;;;8.50;5.60;;;;;;;1.54;64.71;99145.04;105527;1256;72694;-27
2024/03/22 03:49:21;;;;;;;12.90;6.20;;;;;;;1.22;65.52;99144.33;105359;1257;61023;-27
2024/03/22 03:51:49;;;;;;;10.70;6.00;;;;;;;0.98;66.20;99148.70;105472;1262;61206;-27
2024/03/22 03:54:17;;;;;;;11.40;6.40;;;;;;;0.81;66.78;99150.05;105552;1260;73771;-28
2024/03/22 03:56:44;;;;;;;11.00;5.50;;;;;;;0.68;67.14;99150.58;105495;1257;73169;-27
2024/03/22 03:59:12;;;;;;;12.60;5.60;;;;;;;0.44;67.48;99150.99;105486;1262;71486;-27
2024/03/22 04:01:39;;;;;;;7.70;4.20;;;;;;;0.89;67.87;99152.48;105487;1257;61059;-27
2024/03/22 04:04:07;;;;;;;13.30;6.90;;;;;;;1.78;65.72;99149.32;105438;1257;61126;-28
2024/03/22 04:06:34;;;;;;;10.80;6.80;;;;;;;1.98;64.30;99151.91;105174;1262;72733;-27
2024/03/22 04:09:03;;;;;;;10.90;6.90;;;;;;;1.87;64.20;99148.24;105403;1261;74384;-28
2024/03/22 04:11:30;;;;;;;10.80;6.40;;;;;;;1.69;64.84;99144.59;105254;1257;71440;-28
2024/03/22 04:21:38;;;;;;;10.10;4.60;;;;;;;0.80;66.33;99131.48;102690;1292;599456;-28
2024/03/22 04:24:06;;;;;;;8.70;4.50;;;;;;;0.66;66.85;99129.46;104823;1272;61181;-27
2024/03/22 04:26:33;;;;;;;12.20;5.50;;;;;;;0.47;67.59;99127.29;104777;1271;61112;-27
2024/03/22 04:36:45;;;;;;;9.10;6.20;;;;;;;2.13;64.63;99129.48;102648;1292;600243;-27
2024/03/22 04:39:13;;;;;;;9.20;5.90;;;;;;;1.90;65.21;99131.34;104879;1268;61283;-28
2024/03/22 04:49:21;;;;;;;8.90;5.30;;;;;;;1.41;66.44;99127.82;102703;1293;599419;-27
2024/03/22 04:59:28;;;;;;;13.60;7.20;;;;;;;2.77;65.10;99126.38;102675;1292;599605;-25
2024/03/22 05:01:55;;;;;;;7.60;3.70;;;;;;;3.08;63.74;99126.39;105003;1266;61052;-27
2024/03/22 05:04:23;;;;;;;11.60;6.80;;;;;;;2.95;63.55;99128.39;105045;1265;61089;-25
2024/03/22 05:06:51;;;;;;;17.00;10.80;;;;;;;2.73;63.95;99125.35;105092;1266;72029;-26
2024/03/22 05:09:19;;;;;;;19.00;10.00;;;;;;;2.53;64.27;99125.23;104829;1270;73130;-28
2024/03/22 05:19:09;;;;;;;18.20;8.40;;;;;;;2.23;66.19;99135.88;103022;1290;600359;-25
2024/03/22 05:21:37;;;;;;;18.10;9.40;;;;;;;2.78;66.52;99139.48;104833;1267;61064;-25
2024/03/22 05:24:04;;;;;;;16.80;10.40;;;;;;;3.82;64.46;99140.36;104935;1264;61126;-27
2024/03/22 05:26:36;;;;;;;18.60;9.50;;;;;;;4.30;63.39;99135.80;104900;1264;73033;-26
2024/03/22 05:29:04;;;;;;;21.10;11.30;;;;;;;4.50;63.16;99137.11;105262;1261;74335;-26
2024/03/22 05:31:31;;;;;;;17.40;9.30;;;;;;;4.56;63.00;99134.73;105489;1263;70681;-26
2024/03/22 05:33:59;;;;;;;17.40;10.00;;;;;;;4.57;63.09;99135.70;105375;1257;147825;-27
2024/03/22 05:36:27;;;;;;;14.90;9.30;;;;;;;4.52;63.34;99137.33;105699;1260;61062;-26
2024/03/22 05:38:54;;;;;;;13.10;8.80;;;;;;;4.48;63.70;99142.91;105671;1254;71382;-26
2024/03/22 05:41:22;;;;;;;15.70;8.90;;;;;;;4.46;64.03;99144.21;105667;1257;74324;-26
2024/03/22 05:43:49;;;;;;;8.00;4.90;;;;;;;4.43;64.78;99145.75;105614;1260;72656;-26
2024/03/22 05:46:17;;;;;;;14.50;7.00;;;;;;;4.98;64.95;99143.02;105639;1256;61039;-27
2024/03/22 05:48:45;;;;;;;15.20;8.10;;;;;;;5.85;63.06;99138.21;105568;1262;61156;-26
2024/03/22 05:51:12;;;;;;;16.10;9.50;;;;;;;6.15;62.15;99133.52;105627;1260;72657;-26
2024/03/22 05:53:40;;;;;;;9.40;6.30;;;;;;;6.18;62.35;99132.43;105684;1254;74301;-27
2024/03/22 05:56:07;;;;;;;12.90;7.60;;;;;;;6.10;62.63;99134.34;105602;1263;71669;-27
2024/03/22 05:58:36;;;;;;;11.60;7.20;;;;;;;5.83;63.12;99133.16;105547;1258;61098;-27
2024/03/22 06:01:04;;;;;;;13.60;8.00;;;;;;;5.52;64.22;99133.27;105551;1257;61109;-27
2024/03/22 06:03:31;;;;;;;16.70;9.20;;;;;;;5.44;65.33;99134.40;105314;1262;72578;-27
2024/03/22 06:13:40;;;;;;;10.40;6.60;;;;;;;7.19;63.90;99131.40;102714;1292;599342;-26
2024/03/22 06:16:08;;;;;;;11.40;7.50;;;;;;;7.16;63.59;99136.08;104819;1265;60991;-27
2024/03/22 06:26:03;;;;;;;17.00;8.00;;;;;;;6.99;64.20;99126.29;102677;1289;600212;-26
2024/03/22 06:28:30;;;;;;;13.00;7.60;;;;;;;7.32;64.68;99130.38;104938;1265;61238;-25
2024/03/22 06:30:58;;;;;;;16.00;8.40;;;;;;;8.04;63.21;99128.98;104792;1266;61047;-27
2024/03/22 06:33:26;;;;;;;15.90;7.90;;;;;;;8.26;61.94;99129.02;104858;1270;72156;-27
2024/03/22 06:35:53;;;;;;;18.80;8.80;;;;;;;8.30;61.72;99135.13;104833;1270;76624;-26
2024/03/22 06:38:21;;;;;;;5.70;4.20;;;;;;;8.21;62.21;99132.48;104786;1269;73231;-26
2024/03/22 06:40:48;;;;;;;14.00;7.50;;;;;;;8.09;62.66;99133.84;104999;1263;213767;-26
2024/03/22 06:43:16;;;;;;;14.10;8.40;;;;;;;8.04;63.04;99131.21;105177;1263;61096;-27
2024/03/22 06:45:44;;;;;;;14.10;8.10;;;;;;;7.74;64.60;99132.22;105595;1260;72990;-26
2024/03/22 06:55:44;;;;;;;12.20;6.80;;;;;;;9.54;61.64;99135.83;102731;1293;599000;-28
2024/03/22 06:58:12;;;;;;;9.10;4.90;;;;;;;9.66;61.17;99133.20;104846;1272;61148;-26
2024/03/22 07:00:39;;;;;;;10.90;8.10;;;;;;;9.24;61.40;99133.46;104849;1267;61161;-28
2024/03/22 07:03:07;;;;;;;9.00;6.20;;;;;;;9.27;62.80;99132.04;104818;1270;72981;-28
2024/03/22 07:05:34;;;;;;;12.50;7.80;;;;;;;9.78;61.89;99131.78;104832;1267;74381;-28
2024/03/22 07:08:02;;;;;;;12.90;7.50;;;;;;;10.05;60.67;99129.01;104777;1272;75287;-28
2024/03/22 07:10:31;;;;;;;13.10;6.10;;;;;;;9.87;59.78;99124.48;104744;1271;145419;-28
2024/03/22 07:12:59;;;;;;;14.50;8.20;;;;;;;10.21;59.48;99127.42;105152;1263;61207;-28
2024/03/22 07:15:27;;;;;;;13.80;9.60;;;;;;;10.91;57.53;99132.22;105152;1268;75829;-27
2024/03/22 07:17:55;;;;;;;18.10;9.60;;;;;;;11.38;57.29;99134.10;105248;1266;73683;-28
2024/03/22 07:20:23;;;;;;;15.50;10.60;;;;;;;11.65;56.74;99137.56;105240;1266;74500;-28
2024/03/22 07:22:51;;;;;;;16.40;9.10;;;;;;;11.77;55.94;99140.39;105254;1264;62790;-28
2024/03/22 07:32:54;;;;;;;15.60;8.70;;;;;;;11.05;56.59;99136.10;102738;1294;599452;-25
2024/03/22 07:35:21;;;;;;;10.70;7.00;;;;;;;11.04;56.78;99136.13;105184;1264;63961;-25
2024/03/22 07:37:49;;;;;;;13.70;8.90;;;;;;;11.24;56.82;99133.27;105196;1263;61083;-25
2024/03/22 07:40:17;;;;;;;12.50;7.10;;;;;;;11.60;56.85;99131.52;105712;1257;75287;-25
2024/03/22 07:42:44;;;;;;;12.70;7.50;;;;;;;11.74;56.24;99126.41;105604;1259;76593;-26
2024/03/22 07:45:12;;;;;;;14.00;8.70;;;;;;;11.71;55.94;99118.15;105561;1254;74566;-25
2024/03/22 07:47:42;;;;;;;16.60;9.10;;;;;;;11.68;56.43;99113.50;105704;1254;229377;-28
2024/03/22 07:50:10;;;;;;;12.50;7.80;;;;;;;11.63;56.54;99111.34;105794;1252;62106;-27
2024/03/22 07:52:37;;;;;;;11.50;6.90;;;;;;;11.73;56.69;99113.27;105888;1253;73019;-27
2024/03/22 07:55:05;;;;;;;8.90;6.80;;;;;;;11.68;56.00;99112.65;105903;1253;77046;-27
2024/03/22 07:57:33;;;;;;;13.50;8.60;;;;;;;11.95;56.18;99110.21;105921;1253;72639;-26
2024/03/22 08:00:01;;;;;;;10.10;7.20;;;;;;;12.24;55.73;99107.70;105837;1255;61254;-27
2024/03/22 08:02:38;;;;;;;10.60;7.20;;;;;;;12.54;54.84;99105.96;105842;1256;62045;-27
2024/03/22 08:05:06;;;;;;;13.60;7.30;;;;;;;12.94;54.07;99104.54;105759;1253;76643;-25
2024/03/22 08:07:34;;;;;;;16.00;7.80;;;;;;;13.09;53.27;99101.42;105687;1254;77122;-25
2024/03/22 08:10:02;;;;;;;15.70;7.90;;;;;;;13.20;52.29;99101.96;105674;1256;75532;-25
2024/03/22 08:12:32;;;;;;;15.90;8.00;;;;;;;13.53;52.23;99101.98;105898;1256;61767;-25
2024/03/22 08:15:02;;;;;;;14.20;7.50;;;;;;;13.87;50.60;99102.63;105935;1251;61120;-25
2024/03/22 08:17:30;;;;;;;12.90;7.60;;;;;;;14.13;50.29;99095.79;105873;1256;76627;-25
2024/03/22 08:19:57;;;;;;;12.20;7.70;;;;;;;14.20;49.63;99091.38;105830;1253;76877;-26
2024/03/22 08:22:25;;;;;;;11.80;5.90;;;;;;;13.87;49.15;99093.40;105543;1253;75551;-26
2024/03/22 08:24:55;;;;;;;15.40;6.80;;;;;;;13.90;48.95;99093.63;105777;1253;62149;-26
2024/03/22 08:27:24;;;;;;;12.10;5.70;;;;;;;13.69;48.16;99091.05;105717;1256;61028;-26
2024/03/22 08:29:52;;;;;;;7.80;4.50;;;;;;;13.47;47.99;99081.95;105862;1251;76634;-26
2024/03/22 08:32:20;;;;;;;11.00;6.50;;;;;;;13.66;48.70;99076.39;105972;1253;77763;-26
2024/03/22 08:34:47;;;;;;;10.70;6.50;;;;;;;13.89;47.90;99077.65;105854;1256;75489;-26
2024/03/22 08:37:15;;;;;;;14.90;5.90;;;;;;;13.75;47.78;99075.16;105726;1257;61147;-26
2024/03/22 08:39:43;;;;;;;14.20;6.20;;;;;;;13.82;46.28;99077.49;105646;1253;61843;-27
2024/03/22 08:42:11;;;;;;;10.20;5.60;;;;;;;13.82;45.79;99073.64;105615;1254;76328;-27
2024/03/22 08:44:39;;;;;;;13.30;5.40;;;;;;;13.40;45.82;99069.27;105846;1253;76648;-26
2024/03/22 08:47:09;;;;;;;12.50;5.70;;;;;;;13.07;47.16;99069.33;105828;1253;75623;-27
2024/03/22 08:49:36;;;;;;;12.90;5.70;;;;;;;13.33;45.61;99067.70;105726;1256;62898;-26
2024/03/22 08:52:04;;;;;;;11.60;4.80;;;;;;;13.11;45.56;99071.40;105629;1253;62070;-26
2024/03/22 08:54:34;;;;;;;17.70;5.50;;;;;;;12.94;45.52;99064.79;105784;1254;76295;-27
2024/03/22 08:57:02;;;;;;;10.60;5.00;;;;;;;12.96;45.31;99064.76;105738;1259;77125;-27
2024/03/22 08:59:32;;;;;;;8.80;3.90;;;;;;;12.90;45.51;99065.52;105580;1256;76734;-27
2024/03/22 09:02:00;;;;;;;8.80;5.00;;;;;;;12.63;44.97;99060.45;105623;1254;62190;-27
2024/03/22 09:04:28;;;;;;;12.10;5.70;;;;;;;12.66;45.12;99054.06;105687;1254;61412;-27
2024/03/22 09:06:55;;;;;;;8.80;3.70;;;;;;;12.87;45.80;99047.98;105809;1253;76319;-27
2024/03/22 09:09:23;;;;;;;11.70;5.00;;;;;;;13.28;45.11;99047.44;105763;1253;75600;-27
2024/03/22 09:11:53;;;;;;;9.00;4.70;;;;;;;13.70;44.20;99043.34;105786;1257;75032;-27
2024/03/22 09:14:21;;;;;;;7.70;4.50;;;;;;;13.82;42.57;99044.88;105663;1253;62532;-27
2024/03/22 09:16:49;;;;;;;9.00;4.60;;;;;;;13.85;42.90;99041.20;105764;1251;61595;-27
2024/03/22 09:19:16;;;;;;;6.70;4.30;;;;;;;13.10;44.82;99039.60;105752;1257;75943;-27
2024/03/22 09:21:44;;;;;;;8.10;3.80;;;;;;;13.52;44.01;99039.27;105834;1256;78608;-27
2024/03/22 09:24:12;;;;;;;14.50;4.70;;;;;;;13.57;44.46;99034.64;105701;1253;74770;-26
2024/03/22 09:26:39;;;;;;;8.20;3.90;;;;;;;13.90;43.52;99029.77;105847;1256;62861;-26
2024/03/22 09:29:07;;;;;;;15.20;5.70;;;;;;;13.89;42.38;99030.43;105775;1257;62712;-26
2024/03/22 09:31:35;;;;;;;11.40;5.00;;;;;;;14.30;42.44;99021.06;105844;1257;75131;-27
2024/03/22 09:34:03;;;;;;;12.60;6.10;;;;;;;14.37;42.65;99014.11;105879;1256;77060;-27
2024/03/22 09:44:13;;;;;;;8.90;5.00;;;;;;;14.79;41.93;99004.43;102673;1292;600207;-25
2024/03/22 09:46:41;;;;;;;9.80;5.30;;;;;;;15.15;41.16;99003.60;104848;1268;62098;-25
2024/03/22 09:49:10;;;;;;;8.50;4.50;;;;;;;15.32;41.12;98998.64;104806;1269;61184;-25
2024/03/22 09:51:39;;;;;;;7.30;4.50;;;;;;;15.68;40.97;98990.27;104867;1267;75540;-25
2024/03/22 09:54:06;;;;;;;11.00;4.70;;;;;;;15.28;40.34;98999.20;104853;1273;77434;-25
2024/03/22 09:56:34;;;;;;;13.10;4.40;;;;;;;14.80;39.91;98991.52;104809;1266;74950;-25
2024/03/22 09:59:02;;;;;;;10.90;4.50;;;;;;;14.76;39.45;98989.92;104667;1264;215625;-25
2024/03/22 10:01:30;;;;;;;12.10;4.20;;;;;;;14.52;40.05;98989.91;104816;1264;62589;-25
2024/03/22 10:03:57;;;;;;;8.60;4.80;;;;;;;14.48;41.04;98989.83;104877;1264;75504;-26
2024/03/22 10:06:25;;;;;;;8.80;3.60;;;;;;;14.19;40.96;98990.58;105074;1264;77151;-25
2024/03/22 10:08:53;;;;;;;9.70;4.60;;;;;;;13.89;40.92;98980.08;105044;1266;73839;-26
2024/03/22 10:11:20;;;;;;;10.90;5.00;;;;;;;13.90;40.97;98981.98;105066;1265;63874;-26
2024/03/22 10:13:51;;;;;;;9.70;3.40;;;;;;;14.56;40.29;98975.60;105047;1263;61106;-27
2024/03/22 10:16:18;;;;;;;4.30;2.60;;;;;;;14.70;40.34;98978.95;105084;1266;76034;-27
2024/03/22 10:18:47;;;;;;;4.40;2.70;;;;;;;14.82;39.56;98981.29;104759;1264;77153;-27
2024/03/22 10:21:18;;;;;;;14.00;4.50;;;;;;;14.68;39.97;98973.02;104746;1266;74406;-26
2024/03/22 10:23:48;;;;;;;7.40;4.10;;;;;;;15.26;40.38;98974.67;104795;1270;61450;-26
2024/03/22 10:26:16;;;;;;;5.20;3.90;;;;;;;15.74;38.77;98974.06;104858;1271;62313;-27
2024/03/22 10:28:48;;;;;;;6.10;3.70;;;;;;;16.13;36.95;98965.64;105042;1268;76695;-26
2024/03/22 10:31:16;;;;;;;9.40;4.20;;;;;;;16.42;36.67;98975.46;104959;1268;77210;-27
2024/03/22 10:33:45;;;;;;;8.60;3.50;;;;;;;16.07;36.97;98972.33;105104;1264;74764;-27
2024/03/22 10:36:13;;;;;;;7.50;3.90;;;;;;;15.37;38.90;98969.10;104814;1266;61294;-27
2024/03/22 10:38:41;;;;;;;9.10;4.20;;;;;;;15.45;37.95;98970.02;105116;1263;61451;-27
2024/03/22 10:41:09;;;;;;;7.80;3.50;;;;;;;15.30;38.15;98968.69;104881;1264;77960;-27
2024/03/22 10:43:36;;;;;;;10.50;4.00;;;;;;;15.41;38.23;98956.15;104720;1270;75969;-27
2024/03/22 10:46:04;;;;;;;7.70;4.10;;;;;;;15.79;37.81;98955.17;104781;1264;75555;-27
2024/03/22 10:48:33;;;;;;;5.30;4.30;;;;;;;16.09;37.05;98954.84;104926;1267;62902;-27
2024/03/22 10:51:01;;;;;;;7.70;4.40;;;;;;;16.26;36.43;98953.02;105025;1264;63071;-27
2024/03/22 10:53:31;;;;;;;4.40;2.60;;;;;;;16.29;35.97;98953.05;104756;1270;76576;-27
2024/03/22 10:56:00;;;;;;;10.20;4.10;;;;;;;15.65;37.03;98945.52;104767;1270;77183;-27
2024/03/22 10:58:28;;;;;;;25.50;5.10;;;;;;;15.53;37.46;98950.10;104666;1264;72913;-27
2024/03/22 11:00:56;;;;;;;5.20;3.50;;;;;;;15.69;38.31;98951.45;104765;1271;61106;-27
2024/03/22 11:03:28;;;;;;;8.50;4.00;;;;;;;15.90;37.28;98946.67;104718;1264;61684;-28
2024/03/22 11:05:56;;;;;;;9.00;4.70;;;;;;;15.49;37.15;98951.27;104783;1264;75114;-27
2024/03/22 11:08:25;;;;;;;10.30;4.20;;;;;;;15.32;38.11;98945.98;105124;1264;78459;-27
2024/03/22 11:10:54;;;;;;;6.80;4.00;;;;;;;15.27;38.06;98940.67;104836;1273;74891;-27
2024/03/22 11:13:22;;;;;;;8.40;4.20;;;;;;;15.40;38.21;98934.81;104924;1264;64179;-26
2024/03/22 11:15:50;;;;;;;6.80;4.00;;;;;;;15.83;37.64;98928.77;104854;1264;62756;-27
2024/03/22 11:18:17;;;;;;;6.40;3.80;;;;;;;15.85;36.63;98928.08;104872;1263;76515;-27
2024/03/22 11:20:45;;;;;;;8.80;3.90;;;;;;;15.52;37.74;98928.31;104733;1270;76655;-27
2024/03/22 11:23:13;;;;;;;7.90;3.30;;;;;;;14.99;38.22;98930.23;104711;1267;74100;-27
2024/03/22 11:25:41;;;;;;;10.00;4.40;;;;;;;15.01;38.84;98928.67;104835;1264;61116;-27
2024/03/22 11:28:09;;;;;;;8.20;3.70;;;;;;;15.37;38.11;98929.55;104887;1264;61699;-27
2024/03/22 11:30:40;;;;;;;10.20;4.60;;;;;;;15.15;38.22;98918.72;104753;1270;76135;-27
2024/03/22 11:33:08;;;;;;;8.80;4.00;;;;;;;15.18;38.41;98910.38;104724;1264;75676;-27
2024/03/22 11:35:35;;;;;;;7.20;4.10;;;;;;;14.97;38.93;98911.91;105013;1266;75334;-27
2024/03/22 11:38:04;;;;;;;7.80;4.00;;;;;;;14.91;39.04;98909.03;104701;1264;61538;-27
2024/03/22 11:40:33;;;;;;;6.40;3.40;;;;;;;15.43;38.23;98903.37;104793;1264;63957;-27
2024/03/22 11:43:01;;;;;;;11.70;4.40;;;;;;;15.73;37.83;98901.14;104858;1270;75266;-28
2024/03/22 11:45:31;;;;;;;5.40;4.20;;;;;;;15.70;38.22;98898.65;104713;1270;75145;-27
2024/03/22 11:48:02;;;;;;;7.50;3.90;;;;;;;15.56;37.25;98892.34;105110;1268;74112;-27
2024/03/22 11:50:30;;;;;;;19.30;4.40;;;;;;;15.27;37.60;98893.82;104819;1270;63012;-27
2024/03/22 11:52:57;;;;;;;9.20;3.60;;;;;;;15.07;38.72;98884.88;105189;1257;61460;-27
2024/03/22 11:55:27;;;;;;;9.30;3.40;;;;;;;14.84;39.04;98883.55;105255;1263;75668;-27
2024/03/22 11:57:58;;;;;;;10.50;4.00;;;;;;;14.59;39.86;98878.34;105269;1265;77223;-27
2024/03/22 12:00:26;;;;;;;8.60;4.20;;;;;;;14.30;40.24;98874.54;105290;1264;76489;-27
2024/03/22 12:03:14;;;;;;;6.00;3.40;;;;;;;14.32;40.60;98867.76;105275;1265;61264;-27
2024/03/22 12:05:42;;;;;;;9.20;4.40;;;;;;;14.14;41.00;98866.55;105523;1257;61039;-27
2024/03/22 12:08:14;;;;;;;5.00;3.10;;;;;;;13.96;41.67;98859.97;105276;1257;76672;-27
2024/03/22 12:10:42;;;;;;;5.80;3.70;;;;;;;14.06;41.80;98856.64;105390;1257;77139;-27
2024/03/22 12:13:09;;;;;;;4.30;3.10;;;;;;;14.44;40.23;98852.41;105167;1259;75460;-27
2024/03/22 12:15:37;;;;;;;4.60;3.00;;;;;;;14.19;40.50;98850.86;105238;1263;61161;-27
2024/03/22 12:18:05;;;;;;;5.50;3.50;;;;;;;14.56;39.46;98847.36;105155;1256;61113;-27
2024/03/22 12:20:33;;;;;;;7.00;4.30;;;;;;;14.89;39.54;98852.95;105229;1262;74223;-27
2024/03/22 12:23:00;;;;;;;12.50;3.30;;;;;;;15.37;39.02;98840.02;105199;1257;75492;-27
2024/03/22 12:33:03;;;;;;;7.20;4.00;;;;;;;15.09;39.87;98830.02;102689;1291;598719;-26
2024/03/22 12:35:32;;;;;;;5.50;3.20;;;;;;;15.12;39.78;98830.02;105083;1269;62229;-26
2024/03/22 12:38:00;;;;;;;8.30;4.40;;;;;;;14.65;39.93;98828.95;104869;1267;62137;-26
2024/03/22 12:40:27;;;;;;;3.90;3.00;;;;;;;14.75;39.97;98830.10;104806;1267;76800;-26
2024/03/22 12:42:56;;;;;;;10.70;4.40;;;;;;;14.67;40.65;98827.05;104864;1267;76468;-26
2024/03/22 12:45:24;;;;;;;7.70;3.90;;;;;;;14.94;39.52;98818.03;104721;1273;75240;-26
2024/03/22 12:47:51;;;;;;;6.50;4.90;;;;;;;14.57;39.62;98824.88;104729;1273;185238;-26
2024/03/22 12:50:19;;;;;;;11.80;4.70;;;;;;;14.71;39.98;98819.34;104942;1264;62131;-26
2024/03/22 12:52:47;;;;;;;9.40;5.10;;;;;;;14.98;40.41;98822.86;104949;1264;75464;-26
2024/03/22 12:55:17;;;;;;;7.20;4.60;;;;;;;15.00;40.71;98822.32;104994;1264;76013;-26
2024/03/22 12:57:46;;;;;;;16.90;4.80;;;;;;;15.33;39.69;98813.17;105029;1266;74534;-26
2024/03/22 13:00:18;;;;;;;8.50;3.90;;;;;;;15.28;39.12;98809.79;104790;1267;62618;-26
2024/03/22 13:02:46;;;;;;;7.80;4.80;;;;;;;15.11;38.94;98807.02;104848;1267;62901;-26
2024/03/22 13:05:15;;;;;;;7.10;5.10;;;;;;;14.91;38.94;98797.58;105369;1263;76671;-26
2024/03/22 13:07:42;;;;;;;8.80;5.20;;;;;;;14.56;40.17;98800.73;105255;1263;77203;-26